createdAt,value
2023-03-24T00:01:19.662Z,99240.00
2023-03-24T00:03:49.256Z,99227.44
2023-03-24T00:06:18.851Z,99221.56
2023-03-24T00:08:48.155Z,99221.63
2023-03-24T00:11:21.423Z,99230.88
2023-03-24T00:13:50.533Z,99209.06
2023-03-24T00:16:20.112Z,99227.50
2023-03-24T00:18:53.481Z,99224.13
2023-03-24T00:21:25.146Z,99222.41
2023-03-24T00:23:55.571Z,99229.09
2023-03-24T00:26:25.855Z,99237.50
2023-03-24T00:28:55.642Z,99229.94
2023-03-24T00:31:24.579Z,99222.22
2023-03-24T00:33:53.988Z,99231.28
2023-03-24T00:36:24.299Z,99232.84
2023-03-24T00:38:52.927Z,99221.13
2023-03-24T00:41:21.431Z,99224.63
2023-03-24T00:43:51.596Z,99228.00
2023-03-24T00:46:28.476Z,99226.38
2023-03-24T00:49:02.231Z,99229.63
2023-03-24T00:51:32.381Z,99232.78
2023-03-24T00:54:01.868Z,99222.53
2023-03-24T00:56:34.001Z,99213.41
2023-03-24T00:59:03.810Z,99214.38
2023-03-24T01:01:36.635Z,99217.78
2023-03-24T01:04:06.921Z,99209.47
2023-03-24T01:06:37.572Z,99207.03
2023-03-24T01:09:07.204Z,99203.75
2023-03-24T01:11:40.225Z,99202.13
2023-03-24T01:14:11.224Z,99201.28
2023-03-24T01:16:39.600Z,99191.16
2023-03-24T01:19:09.250Z,99174.34
2023-03-24T01:21:38.527Z,99190.31
2023-03-24T01:24:07.769Z,99185.25
2023-03-24T01:26:36.071Z,99187.78
2023-03-24T01:29:04.209Z,99194.50
2023-03-24T01:31:33.793Z,99187.75
2023-03-24T01:34:02.135Z,99186.03
2023-03-24T01:36:30.316Z,99187.78
2023-03-24T01:38:58.541Z,99184.44
2023-03-24T01:41:28.792Z,99180.97
2023-03-24T01:43:56.836Z,99186.81
2023-03-24T01:46:26.534Z,99180.13
2023-03-24T01:49:01.269Z,99186.03
2023-03-24T01:51:34.816Z,99179.38
2023-03-24T01:54:05.994Z,99184.44
2023-03-24T01:56:38.120Z,99186.13
2023-03-24T01:59:11.318Z,99183.66
2023-03-24T02:02:02.715Z,99181.16
2023-03-24T02:04:54.199Z,99181.19
2023-03-24T02:07:33.706Z,99182.03
2023-03-24T02:10:04.503Z,99165.25
2023-03-24T02:12:33.959Z,99169.44
2023-03-24T02:15:05.946Z,99173.66
2023-03-24T02:17:51.782Z,99165.28
2023-03-24T02:20:51.327Z,99175.28
2023-03-24T02:23:56.665Z,99169.41
2023-03-24T02:26:47.223Z,99174.34
2023-03-24T02:29:45.377Z,99171.00
2023-03-24T02:32:48.604Z,99167.69
2023-03-24T02:35:45.273Z,99177.75
2023-03-24T02:38:31.051Z,99172.72
2023-03-24T02:41:07.070Z,99171.91
2023-03-24T02:43:46.749Z,99167.72
2023-03-24T02:46:24.499Z,99166.00
2023-03-24T02:49:07.172Z,99157.56
2023-03-24T02:51:41.025Z,99168.50
2023-03-24T02:54:13.550Z,99172.72
2023-03-24T02:56:48.202Z,99162.66
2023-03-24T02:59:38.371Z,99150.06
2023-03-24T03:02:23.098Z,99148.34
2023-03-24T03:05:06.086Z,99145.00
2023-03-24T03:07:37.480Z,99137.44
2023-03-24T03:10:14.089Z,99140.78
2023-03-24T03:12:49.327Z,99147.50
2023-03-24T03:15:24.168Z,99139.09
2023-03-24T03:17:58.979Z,99149.16
2023-03-24T03:20:34.820Z,99144.09
2023-03-24T03:23:08.529Z,99149.13
2023-03-24T03:25:42.321Z,99151.66
2023-03-24T03:28:17.888Z,99144.13
2023-03-24T03:30:51.789Z,99151.63
2023-03-24T03:33:25.117Z,99144.13
2023-03-24T03:35:59.284Z,99139.09
2023-03-24T03:38:34.228Z,99137.41
2023-03-24T03:41:05.703Z,99130.69
2023-03-24T03:43:38.844Z,99129.84
2023-03-24T03:46:08.813Z,99130.66
2023-03-24T03:48:40.377Z,99120.56
2023-03-24T03:51:14.333Z,99122.22
2023-03-24T03:53:53.356Z,99123.91
2023-03-24T03:56:24.840Z,99126.44
2023-03-24T03:59:06.589Z,99127.25
2023-03-24T04:01:37.606Z,99132.16
2023-03-24T04:05:03.271Z,99135.50
2023-03-24T04:08:03.538Z,99122.06
2023-03-24T04:11:19.261Z,99132.78
2023-03-24T04:14:29.747Z,99126.03
2023-03-24T04:17:47.072Z,99117.81
2023-03-24T04:20:32.614Z,99121.25
2023-03-24T04:23:09.475Z,99116.34
2023-03-24T04:25:56.662Z,99119.78
2023-03-24T04:28:31.832Z,99120.66
2023-03-24T04:31:07.406Z,99119.00
2023-03-24T04:33:43.115Z,99127.28
2023-03-24T04:36:19.142Z,99120.47
2023-03-24T04:39:17.111Z,99130.38
2023-03-24T04:41:52.731Z,99126.94
2023-03-24T04:44:28.081Z,99131.19
2023-03-24T04:47:17.931Z,99133.75
2023-03-24T04:50:02.714Z,99127.97
2023-03-24T04:52:31.312Z,99126.41
2023-03-24T04:55:03.058Z,99118.84
2023-03-24T04:57:32.161Z,99115.53
2023-03-24T05:00:09.013Z,99113.84
2023-03-24T05:02:38.425Z,99117.22
2023-03-24T05:05:12.765Z,99124.81
2023-03-24T05:07:45.089Z,99116.41
2023-03-24T05:10:16.687Z,99123.91
2023-03-24T05:12:50.746Z,99115.34
2023-03-24T05:15:19.178Z,99125.41
2023-03-24T05:17:53.092Z,99133.03
2023-03-24T05:20:25.506Z,99138.97
2023-03-24T05:22:53.571Z,99139.03
2023-03-24T05:25:21.696Z,99136.56
2023-03-24T05:27:50.935Z,99126.50
2023-03-24T05:30:26.937Z,99124.84
2023-03-24T05:33:03.435Z,99127.41
2023-03-24T05:35:31.682Z,99138.34
2023-03-24T05:37:59.721Z,99150.91
2023-03-24T05:40:27.884Z,99150.03
2023-03-24T05:43:16.393Z,99137.44
2023-03-24T05:45:51.653Z,99142.44
2023-03-24T05:48:30.562Z,99135.78
2023-03-24T05:51:16.943Z,99134.16
2023-03-24T05:53:46.820Z,99133.31
2023-03-24T05:56:25.615Z,99145.91
2023-03-24T05:59:14.062Z,99147.47
2023-03-24T06:02:05.290Z,99151.66
2023-03-24T06:04:57.558Z,99143.38
2023-03-24T06:07:26.665Z,99140.91
2023-03-24T06:09:58.197Z,99145.16
2023-03-24T06:12:27.530Z,99144.38
2023-03-24T06:14:59.171Z,99141.09
2023-03-24T06:17:30.564Z,99143.59
2023-03-24T06:20:06.110Z,99147.84
2023-03-24T06:22:45.335Z,99147.03
2023-03-24T06:25:20.390Z,99146.22
2023-03-24T06:28:06.482Z,99144.56
2023-03-24T06:30:37.015Z,99139.53
2023-03-24T06:33:08.332Z,99132.81
2023-03-24T06:35:38.509Z,99137.88
2023-03-24T06:38:11.761Z,99131.19
2023-03-24T06:40:41.112Z,99122.81
2023-03-24T06:43:09.648Z,99127.00
2023-03-24T06:45:40.617Z,99124.56
2023-03-24T06:48:13.173Z,99127.06
2023-03-24T06:50:42.900Z,99135.47
2023-03-24T06:53:12.369Z,99124.59
2023-03-24T06:55:40.826Z,99117.88
2023-03-24T06:58:10.377Z,99121.25
2023-03-24T07:00:57.446Z,99123.78
2023-03-24T07:03:34.462Z,99113.69
2023-03-24T07:06:30.730Z,99108.69
2023-03-24T07:09:06.476Z,99102.81
2023-03-24T07:11:34.482Z,99101.97
2023-03-24T07:14:04.169Z,99111.19
2023-03-24T07:16:34.264Z,99105.31
2023-03-24T07:19:23.172Z,99103.66
2023-03-24T07:22:09.794Z,99109.53
2023-03-24T07:24:58.185Z,99096.09
2023-03-24T07:27:59.727Z,99091.06
2023-03-24T07:30:39.432Z,99091.91
2023-03-24T07:33:10.880Z,99087.69
2023-03-24T07:35:39.331Z,99097.75
2023-03-24T07:38:10.131Z,99096.06
2023-03-24T07:40:38.332Z,99090.19
2023-03-24T07:43:06.989Z,99081.00
2023-03-24T07:45:35.022Z,99088.53
2023-03-24T07:48:03.544Z,99086.00
2023-03-24T07:50:36.183Z,99080.16
2023-03-24T07:53:12.088Z,99089.38
2023-03-24T07:55:40.317Z,99083.53
2023-03-24T07:58:14.288Z,99086.84
2023-03-24T08:00:54.200Z,99087.69
2023-03-24T08:03:29.741Z,99085.19
2023-03-24T08:06:24.049Z,99084.31
2023-03-24T08:08:54.451Z,99082.59
2023-03-24T08:11:22.432Z,99080.91
2023-03-24T08:13:50.300Z,99085.94
2023-03-24T08:16:18.183Z,99069.06
2023-03-24T08:18:46.319Z,99074.09
2023-03-24T08:21:14.284Z,99061.41
2023-03-24T08:23:42.121Z,99056.38
2023-03-24T08:26:11.683Z,99054.69
2023-03-24T08:28:39.683Z,99052.16
2023-03-24T08:31:07.795Z,99040.38
2023-03-24T08:33:36.526Z,99028.63
2023-03-24T08:36:04.946Z,99026.91
2023-03-24T08:38:32.887Z,99024.31
2023-03-24T08:41:06.883Z,99019.25
2023-03-24T08:43:37.646Z,99015.00
2023-03-24T08:46:08.872Z,99021.53
2023-03-24T08:48:40.612Z,99018.03
2023-03-24T08:51:13.152Z,99013.69
2023-03-24T08:53:41.356Z,99013.59
2023-03-24T08:56:10.444Z,99001.69
2023-03-24T08:58:39.716Z,98997.31
2023-03-24T09:01:07.755Z,98998.88
2023-03-24T09:03:35.977Z,98998.75
2023-03-24T09:06:03.903Z,98990.16
2023-03-24T09:08:31.861Z,98984.13
2023-03-24T09:11:00.140Z,98978.22
2023-03-24T09:13:28.141Z,98982.31
2023-03-24T09:16:01.515Z,98971.25
2023-03-24T09:18:30.361Z,98971.97
2023-03-24T09:20:58.315Z,98965.03
2023-03-24T09:23:29.114Z,98960.59
2023-03-24T09:25:57.049Z,98960.34
2023-03-24T09:28:25.355Z,98952.63
2023-03-24T09:30:59.478Z,98955.06
2023-03-24T09:33:29.562Z,98951.63
2023-03-24T09:35:59.739Z,98942.06
2023-03-24T09:38:28.923Z,98938.56
2023-03-24T09:41:00.844Z,98931.69
2023-03-24T09:43:34.617Z,98938.34
2023-03-24T09:46:07.759Z,98934.16
2023-03-24T09:48:41.314Z,98930.00
2023-03-24T09:51:13.139Z,98936.66
2023-03-24T09:53:47.603Z,98931.59
2023-03-24T09:56:19.032Z,98924.91
2023-03-24T09:58:51.169Z,98915.66
2023-03-24T10:01:21.176Z,98921.56
2023-03-24T10:03:49.151Z,98918.22
2023-03-24T10:06:23.131Z,98916.63
2023-03-24T10:08:58.886Z,98927.72
2023-03-24T10:11:33.114Z,98934.59
2023-03-24T10:14:15.076Z,98935.50
2023-03-24T10:16:50.981Z,98933.84
2023-03-24T10:19:30.860Z,98924.56
2023-03-24T10:22:05.233Z,98910.91
2023-03-24T10:24:42.264Z,98915.78
2023-03-24T10:27:18.323Z,98921.56
2023-03-24T10:29:48.674Z,98916.50
2023-03-24T10:32:22.127Z,98910.63
2023-03-24T10:34:55.835Z,98910.44
2023-03-24T10:37:23.996Z,98915.44
2023-03-24T10:39:52.532Z,98910.38
2023-03-24T10:42:26.418Z,98919.56
2023-03-24T10:44:54.610Z,98918.50
2023-03-24T10:47:27.091Z,98914.94
2023-03-24T10:49:58.022Z,98925.72
2023-03-24T10:52:26.448Z,98919.78
2023-03-24T10:54:56.204Z,98923.22
2023-03-24T10:57:25.760Z,98927.44
2023-03-24T10:59:57.342Z,98921.59
2023-03-24T11:02:30.625Z,98924.06
2023-03-24T11:05:02.288Z,98923.94
2023-03-24T11:07:33.679Z,98918.78
2023-03-24T11:10:07.124Z,98926.19
2023-03-24T11:12:38.113Z,98935.38
2023-03-24T11:15:22.092Z,98934.47
2023-03-24T11:17:57.306Z,98925.16
2023-03-24T11:20:33.053Z,98925.00
2023-03-24T11:23:03.941Z,98929.13
2023-03-24T11:25:34.830Z,98925.72
2023-03-24T11:28:06.916Z,98930.72
2023-03-24T11:30:36.898Z,98931.44
2023-03-24T11:33:07.226Z,98936.41
2023-03-24T11:35:41.796Z,98930.44
2023-03-24T11:38:18.106Z,98931.13
2023-03-24T11:40:58.256Z,98930.25
2023-03-24T11:43:28.014Z,98917.56
2023-03-24T11:46:02.365Z,98923.50
2023-03-24T11:48:40.478Z,98915.06
2023-03-24T11:51:12.550Z,98920.19
2023-03-24T11:53:45.582Z,98911.06
2023-03-24T11:56:22.192Z,98906.13
2023-03-24T11:58:57.470Z,98902.00
2023-03-24T12:01:31.265Z,98893.72
2023-03-24T12:04:15.476Z,98902.06
2023-03-24T12:06:55.594Z,98905.41
2023-03-24T12:09:32.566Z,98899.50
2023-03-24T12:12:32.014Z,98906.22
2023-03-24T12:15:27.842Z,98906.94
2023-03-24T12:18:08.797Z,98911.03
2023-03-24T12:20:47.047Z,98914.31
2023-03-24T12:23:21.342Z,98909.16
2023-03-24T12:26:10.371Z,98901.34
2023-03-24T12:28:53.693Z,98911.38
2023-03-24T12:31:45.045Z,98910.50
2023-03-24T12:34:35.443Z,98899.44
2023-03-24T12:37:11.158Z,98887.56
2023-03-24T12:39:49.058Z,98894.31
2023-03-24T12:42:18.889Z,98891.06
2023-03-24T12:45:13.480Z,98893.56
2023-03-24T12:47:58.037Z,98894.41
2023-03-24T12:50:37.542Z,98885.09
2023-03-24T12:53:18.161Z,98878.28
2023-03-24T12:55:52.444Z,98875.69
2023-03-24T12:58:27.314Z,98872.28
2023-03-24T13:01:04.609Z,98873.06
2023-03-24T13:03:41.542Z,98866.28
2023-03-24T13:06:17.747Z,98860.44
2023-03-24T13:09:00.754Z,98856.97
2023-03-24T13:11:35.871Z,98856.97
2023-03-24T13:14:10.335Z,98844.22
2023-03-24T13:16:41.082Z,98839.88
2023-03-24T13:19:19.561Z,98839.06
2023-03-24T13:21:48.871Z,98834.03
2023-03-24T13:24:20.114Z,98835.81
2023-03-24T13:26:56.154Z,98832.38
2023-03-24T13:29:49.678Z,98835.06
2023-03-24T13:32:30.152Z,98840.06
2023-03-24T13:35:05.974Z,98835.06
2023-03-24T13:37:37.473Z,98816.72
2023-03-24T13:40:12.176Z,98816.63
2023-03-24T13:42:46.345Z,98811.69
2023-03-24T13:45:33.040Z,98818.38
2023-03-24T13:48:07.854Z,98807.41
2023-03-24T13:50:39.497Z,98803.31
2023-03-24T13:53:14.939Z,98809.28
2023-03-24T13:55:51.117Z,98798.38
2023-03-24T13:58:22.039Z,98797.47
2023-03-24T14:01:07.289Z,98801.72
2023-03-24T14:03:37.623Z,98800.97
2023-03-24T14:06:09.177Z,98786.72
2023-03-24T14:08:55.995Z,98787.47
2023-03-24T14:11:49.401Z,98785.81
2023-03-24T14:14:23.221Z,98786.69
2023-03-24T14:16:53.958Z,98781.63
2023-03-24T14:19:27.516Z,98784.22
2023-03-24T14:22:04.511Z,98781.81
2023-03-24T14:24:32.931Z,98788.56
2023-03-24T14:27:02.239Z,98782.81
2023-03-24T14:29:50.676Z,98786.19
2023-03-24T14:32:22.981Z,98789.66
2023-03-24T14:34:54.052Z,98790.56
2023-03-24T14:37:22.971Z,98792.41
2023-03-24T14:39:52.132Z,98789.16
2023-03-24T14:42:58.414Z,98789.34
2023-03-24T14:45:41.251Z,98784.47
2023-03-24T14:48:28.409Z,98790.44
2023-03-24T14:51:02.014Z,98785.50
2023-03-24T14:53:30.480Z,98784.75
2023-03-24T14:55:59.224Z,98772.28
2023-03-24T14:58:35.818Z,98783.19
2023-03-24T15:01:07.888Z,98779.06
2023-03-24T15:03:45.957Z,98765.78
2023-03-24T15:06:15.989Z,98765.03
2023-03-24T15:08:51.277Z,98760.06
2023-03-24T15:11:23.046Z,98755.16
2023-03-24T15:13:54.479Z,98764.56
2023-03-24T15:16:25.157Z,98758.78
2023-03-24T15:21:30.190Z,98761.47
2023-03-24T15:24:01.037Z,98753.94
2023-03-24T15:26:30.330Z,98759.84
2023-03-24T15:29:02.027Z,98757.38
2023-03-24T15:31:31.162Z,98765.84
2023-03-24T15:34:07.638Z,98758.34
2023-03-24T15:36:40.844Z,98744.13
2023-03-24T15:39:20.811Z,98758.38
2023-03-24T15:41:53.731Z,98757.59
2023-03-24T15:44:27.444Z,98761.03
2023-03-24T15:46:57.295Z,98757.66
2023-03-24T15:49:27.913Z,98754.31
2023-03-24T15:51:59.982Z,98761.13
2023-03-24T15:54:30.774Z,98748.50
2023-03-24T15:57:21.076Z,98743.47
2023-03-24T15:59:52.310Z,98748.59
2023-03-24T16:02:31.420Z,98746.16
2023-03-24T16:05:11.011Z,98756.31
2023-03-24T16:07:42.423Z,98758.91
2023-03-24T16:10:32.404Z,98764.91
2023-03-24T16:13:14.590Z,98758.22
2023-03-24T16:15:46.064Z,98754.91
2023-03-24T16:18:18.168Z,98758.38
2023-03-24T16:20:46.256Z,98754.16
2023-03-24T16:23:14.409Z,98758.41
2023-03-24T16:25:42.329Z,98761.81
2023-03-24T16:28:13.214Z,98763.53
2023-03-24T16:30:44.623Z,98760.19
2023-03-24T16:33:13.579Z,98761.91
2023-03-24T16:35:41.535Z,98762.78
2023-03-24T16:38:13.608Z,98760.38
2023-03-24T16:40:44.767Z,98757.06
2023-03-24T16:43:12.817Z,98757.97
2023-03-24T16:45:40.705Z,98759.69
2023-03-24T16:48:11.210Z,98757.25
2023-03-24T16:50:41.042Z,98743.97
2023-03-24T16:53:09.761Z,98760.72
2023-03-24T16:55:38.629Z,98764.13
2023-03-24T16:58:07.161Z,98759.16
2023-03-24T17:00:38.278Z,98760.06
2023-03-24T17:03:08.067Z,98765.94
2023-03-24T17:05:41.742Z,98766.88
2023-03-24T17:08:10.504Z,98770.25
2023-03-24T17:10:38.723Z,98782.09
2023-03-24T17:13:06.880Z,98780.44
2023-03-24T17:15:34.710Z,98785.53
2023-03-24T17:18:03.868Z,98793.19
2023-03-24T17:20:31.960Z,98791.56
2023-03-24T17:23:04.104Z,98802.59
2023-03-24T17:25:32.236Z,98791.66
2023-03-24T17:28:00.248Z,98798.41
2023-03-24T17:30:30.202Z,98804.34
2023-03-24T17:32:58.233Z,98800.16
2023-03-24T17:35:26.562Z,98815.34
2023-03-24T17:37:54.608Z,98813.72
2023-03-24T17:40:23.808Z,98813.72
2023-03-24T17:42:51.702Z,98813.78
2023-03-24T17:45:20.583Z,98820.56
2023-03-24T17:47:48.569Z,98827.38
2023-03-24T17:50:16.719Z,98818.25
2023-03-24T17:52:46.447Z,98836.78
2023-03-24T17:55:16.115Z,98836.84
2023-03-24T17:57:46.049Z,98828.44
2023-03-24T18:00:16.474Z,98839.41
2023-03-24T18:02:45.271Z,98837.78
2023-03-24T18:05:15.800Z,98856.31
2023-03-24T18:07:43.804Z,98849.63
2023-03-24T18:10:11.778Z,98861.44
2023-03-24T18:12:39.709Z,98890.91
2023-03-24T18:15:10.481Z,98897.69
2023-03-24T18:17:38.484Z,98885.16
2023-03-24T18:20:10.792Z,98856.75
2023-03-24T18:22:40.973Z,98891.19
2023-03-24T18:25:10.816Z,98887.03
2023-03-24T18:27:39.495Z,98884.53
2023-03-24T18:30:11.467Z,98878.72
2023-03-24T18:32:39.864Z,98890.47
2023-03-24T18:35:10.174Z,98885.44
2023-03-24T18:37:38.805Z,98888.78
2023-03-24T18:40:08.998Z,98889.63
2023-03-24T18:42:37.020Z,98893.88
2023-03-24T18:45:06.001Z,98902.28
2023-03-24T18:47:35.860Z,98893.91
2023-03-24T18:50:04.551Z,98893.06
2023-03-24T18:52:33.071Z,98888.03
2023-03-24T18:55:02.396Z,98893.91
2023-03-24T18:57:31.063Z,98888.00
2023-03-24T19:00:00.294Z,98895.47
2023-03-24T19:02:28.535Z,98899.63
2023-03-24T19:04:57.897Z,98875.28
2023-03-24T19:07:26.251Z,98882.00
2023-03-24T19:09:55.324Z,98892.94
2023-03-24T19:12:23.254Z,98876.22
2023-03-24T19:14:54.066Z,98892.16
2023-03-24T19:17:23.616Z,98885.47
2023-03-24T19:19:51.729Z,98881.28
2023-03-24T19:22:22.154Z,98870.31
2023-03-24T19:24:50.676Z,98868.59
2023-03-24T19:27:18.958Z,98855.94
2023-03-24T19:29:47.495Z,98846.66
2023-03-24T19:32:15.511Z,98850.81
2023-03-24T19:34:43.392Z,98871.00
2023-03-24T19:37:13.850Z,98870.16
2023-03-24T19:39:43.087Z,98881.97
2023-03-24T19:42:10.950Z,98874.53
2023-03-24T19:44:38.835Z,98873.00
2023-03-24T19:47:06.679Z,98868.91
2023-03-24T19:49:34.545Z,98858.84
2023-03-24T19:52:03.638Z,98844.50
2023-03-24T19:54:31.576Z,98852.88
2023-03-24T19:57:00.913Z,98857.03
2023-03-24T19:59:29.002Z,98859.50
2023-03-24T20:01:57.002Z,98856.97
2023-03-24T20:04:25.941Z,98862.09
2023-03-24T20:06:53.900Z,98853.69
2023-03-24T20:09:21.742Z,98857.91
2023-03-24T20:11:52.395Z,98854.56
2023-03-24T20:14:21.670Z,98852.06
2023-03-24T20:16:49.729Z,98855.47
2023-03-24T20:19:17.743Z,98853.78
2023-03-24T20:21:45.842Z,98858.88
2023-03-24T20:24:14.710Z,98853.91
2023-03-24T20:26:42.806Z,98822.88
2023-03-24T20:29:10.709Z,98826.25
2023-03-24T20:31:41.806Z,98819.59
2023-03-24T20:34:10.830Z,98815.38
2023-03-24T20:36:41.307Z,98789.41
2023-03-24T20:39:09.632Z,98794.44
2023-03-24T20:41:37.612Z,98802.00
2023-03-24T20:44:06.038Z,98791.94
2023-03-24T20:46:34.294Z,98788.56
2023-03-24T20:49:03.963Z,98792.72
2023-03-24T20:51:31.844Z,98798.59
2023-03-24T20:53:59.716Z,98793.56
2023-03-24T20:56:27.789Z,98800.28
2023-03-24T20:58:55.637Z,98798.59
2023-03-24T21:01:24.591Z,98792.72
2023-03-24T21:03:54.593Z,98791.88
2023-03-24T21:06:24.340Z,98788.56
2023-03-24T21:08:54.307Z,98796.13
2023-03-24T21:11:22.659Z,98793.59
2023-03-24T21:13:50.728Z,98788.63
2023-03-24T21:16:23.379Z,98797.13
2023-03-24T21:18:51.340Z,98795.53
2023-03-24T21:21:19.197Z,98797.28
2023-03-24T21:23:48.431Z,98800.66
2023-03-24T21:26:18.092Z,98797.38
2023-03-24T21:28:46.678Z,98799.91
2023-03-24T21:31:18.883Z,98787.38
2023-03-24T21:33:47.101Z,98787.41
2023-03-24T21:36:15.825Z,98798.34
2023-03-24T21:38:44.340Z,98792.44
2023-03-24T21:41:13.635Z,98796.66
2023-03-24T21:43:42.153Z,98796.66
2023-03-24T21:46:14.818Z,98795.00
2023-03-24T21:48:51.295Z,98793.31
2023-03-24T21:51:21.253Z,98784.09
2023-03-24T21:53:49.156Z,98789.13
2023-03-24T21:56:20.206Z,98786.63
2023-03-24T21:58:48.231Z,98782.44
2023-03-24T22:01:16.728Z,98776.56
2023-03-24T22:03:46.414Z,98768.19
2023-03-24T22:06:14.970Z,98770.66
2023-03-24T22:08:44.207Z,98765.63
2023-03-24T22:11:15.236Z,98763.13
2023-03-24T22:13:44.539Z,98764.75
2023-03-24T22:16:12.440Z,98759.69
2023-03-24T22:18:40.380Z,98767.19
2023-03-24T22:21:10.497Z,98765.44
2023-03-24T22:23:42.454Z,98761.28
2023-03-24T22:26:13.315Z,98758.78
2023-03-24T22:28:42.107Z,98752.00
2023-03-24T22:31:13.721Z,98751.97
2023-03-24T22:33:42.042Z,98748.63
2023-03-24T22:36:11.207Z,98749.44
2023-03-24T22:38:39.222Z,98743.56
2023-03-24T22:41:09.827Z,98748.56
2023-03-24T22:43:39.356Z,98751.13
2023-03-24T22:46:08.005Z,98756.28
2023-03-24T22:48:39.342Z,98758.94
2023-03-24T22:51:08.713Z,98751.41
2023-03-24T22:53:37.037Z,98757.28
2023-03-24T22:56:06.304Z,98758.06
2023-03-24T22:58:35.610Z,98761.41
2023-03-24T23:01:03.841Z,98748.88
2023-03-24T23:03:31.897Z,98768.09
2023-03-24T23:06:03.043Z,98763.84
2023-03-24T23:08:32.307Z,98767.19
2023-03-24T23:11:00.972Z,98763.00
2023-03-24T23:13:30.835Z,98763.81
2023-03-24T23:15:58.877Z,98766.31
2023-03-24T23:18:26.834Z,98773.84
2023-03-24T23:21:06.924Z,98783.06
2023-03-24T23:23:35.022Z,98775.50
2023-03-24T23:26:04.792Z,98784.72
2023-03-24T23:28:33.141Z,98781.38
2023-03-24T23:31:00.991Z,98777.22
2023-03-24T23:33:29.358Z,98790.63
2023-03-24T23:35:58.826Z,98781.38
2023-03-24T23:38:28.369Z,98774.66
2023-03-24T23:40:56.309Z,98770.47
2023-03-24T23:43:24.201Z,98780.53
2023-03-24T23:45:55.592Z,98770.47
2023-03-24T23:48:23.524Z,98759.56
2023-03-24T23:50:56.693Z,98761.22
2023-03-24T23:53:24.796Z,98765.41
2023-03-24T23:55:57.021Z,98746.94
2023-03-24T23:58:25.469Z,98735.25
